Time;durP1;ratioP1;P1;durP2;ratioP2;P2;SDS_P1;SDS_P2;PMS_P1;PMS_P2;Temp;Humidity;BMP_temperature;BMP_pressure;BME280_temperature;BME280_humidity;BME280_pressure;Samples;Min_cycle;Max_cycle;Signal;HPM_P1;HPM_P2
2020/07/13 00:00:54;;;;;;;0;0;;;;;;;0;0;0;;;;
2020/07/13 00:02:02;;;;;;;0;0;;;;;;;0;0;0;;;;
2020/07/13 00:03:03;;;;;;;0;0;;;;;;;0;0;0;;;;
2020/07/13 00:04:04;;;;;;;0;0;;;;;;;0;0;0;;;;
2020/07/13 00:05:04;;;;;;;0;0;;;;;;;0;0;0;;;;
2020/07/13 00:06:07;;;;;;;0;0;;;;;;;0;0;0;;;;
2020/07/13 00:07:08;;;;;;;0;0;;;;;;;0;0;0;;;;
2020/07/13 00:08:09;;;;;;;0;0;;;;;;;0;0;0;;;;
2020/07/13 00:09:09;;;;;;;0;0;;;;;;;0;0;0;;;;
2020/07/13 00:10:10;;;;;;;0;0;;;;;;;0;0;0;;;;
2020/07/13 00:11:26;;;;;;;0;0;;;;;;;0;0;0;;;;
2020/07/13 00:12:26;;;;;;;0;0;;;;;;;0;0;0;;;;
2020/07/13 00:13:27;;;;;;;0;0;;;;;;;0;0;0;;;;
2020/07/13 00:14:27;;;;;;;0;0;;;;;;;0;0;0;;;;
2020/07/13 00:15:28;;;;;;;0;0;;;;;;;0;0;0;;;;
2020/07/13 00:16:29;;;;;;;0;0;;;;;;;0;0;0;;;;
2020/07/13 00:17:29;;;;;;;0;0;;;;;;;0;0;0;;;;
2020/07/13 00:18:30;;;;;;;0;0;;;;;;;0;0;0;;;;
2020/07/13 00:19:30;;;;;;;0;0;;;;;;;0;0;0;;;;
2020/07/13 00:20:31;;;;;;;0;0;;;;;;;0;0;0;;;;
2020/07/13 00:21:31;;;;;;;0;0;;;;;;;0;0;0;;;;
2020/07/13 00:22:32;;;;;;;0;0;;;;;;;0;0;0;;;;
2020/07/13 00:23:32;;;;;;;0;0;;;;;;;0;0;0;;;;
2020/07/13 00:24:33;;;;;;;0;0;;;;;;;0;0;0;;;;
2020/07/13 00:25:34;;;;;;;0;0;;;;;;;0;0;0;;;;
2020/07/13 00:26:35;;;;;;;0;0;;;;;;;0;0;0;;;;
2020/07/13 00:27:36;;;;;;;0;0;;;;;;;0;0;0;;;;
2020/07/13 00:28:36;;;;;;;0;0;;;;;;;0;0;0;;;;
2020/07/13 00:29:37;;;;;;;0;0;;;;;;;0;0;0;;;;
2020/07/13 00:30:37;;;;;;;0;0;;;;;;;0;0;0;;;;
2020/07/13 00:31:38;;;;;;;0;0;;;;;;;0;0;0;;;;
2020/07/13 00:32:38;;;;;;;0;0;;;;;;;0;0;0;;;;
2020/07/13 00:33:39;;;;;;;0;0;;;;;;;0;0;0;;;;
2020/07/13 00:34:40;;;;;;;0;0;;;;;;;0;0;0;;;;
2020/07/13 00:35:40;;;;;;;0;0;;;;;;;0;0;0;;;;
2020/07/13 00:36:41;;;;;;;0;0;;;;;;;0;0;0;;;;
2020/07/13 00:37:41;;;;;;;0;0;;;;;;;0;0;0;;;;
2020/07/13 00:38:42;;;;;;;0;0;;;;;;;0;0;0;;;;
2020/07/13 00:39:42;;;;;;;0;0;;;;;;;0;0;0;;;;
2020/07/13 00:40:43;;;;;;;0;0;;;;;;;0;0;0;;;;
2020/07/13 00:41:43;;;;;;;0;0;;;;;;;0;0;0;;;;
2020/07/13 00:42:44;;;;;;;0;0;;;;;;;0;0;0;;;;
2020/07/13 00:43:44;;;;;;;0;0;;;;;;;0;0;0;;;;
2020/07/13 00:44:45;;;;;;;0;0;;;;;;;0;0;0;;;;
2020/07/13 00:45:45;;;;;;;0;0;;;;;;;0;0;0;;;;
2020/07/13 00:46:46;;;;;;;0;0;;;;;;;0;0;0;;;;
2020/07/13 00:47:46;;;;;;;0;0;;;;;;;0;0;0;;;;
2020/07/13 00:48:47;;;;;;;0;0;;;;;;;0;0;0;;;;
2020/07/13 00:49:48;;;;;;;0;0;;;;;;;0;0;0;;;;
2020/07/13 00:50:50;;;;;;;0;0;;;;;;;0;0;0;;;;
2020/07/13 00:51:52;;;;;;;0;0;;;;;;;0;0;0;;;;
2020/07/13 00:52:57;;;;;;;0;0;;;;;;;0;0;0;;;;
2020/07/13 00:54:01;;;;;;;0;0;;;;;;;0;0;0;;;;
2020/07/13 00:55:02;;;;;;;0;0;;;;;;;0;0;0;;;;
2020/07/13 00:56:05;;;;;;;0;0;;;;;;;0;0;0;;;;
2020/07/13 00:57:06;;;;;;;0;0;;;;;;;0;0;0;;;;
2020/07/13 00:58:07;;;;;;;0;0;;;;;;;0;0;0;;;;
2020/07/13 00:59:09;;;;;;;0;0;;;;;;;0;0;0;;;;
2020/07/13 01:00:10;;;;;;;0;0;;;;;;;0;0;0;;;;
2020/07/13 01:01:13;;;;;;;0;0;;;;;;;0;0;0;;;;
2020/07/13 01:02:14;;;;;;;0;0;;;;;;;0;0;0;;;;
2020/07/13 01:03:16;;;;;;;0;0;;;;;;;0;0;0;;;;
2020/07/13 01:04:18;;;;;;;0;0;;;;;;;0;0;0;;;;
2020/07/13 01:05:18;;;;;;;0;0;;;;;;;0;0;0;;;;
2020/07/13 01:06:19;;;;;;;0;0;;;;;;;0;0;0;;;;
2020/07/13 01:07:24;;;;;;;0;0;;;;;;;0;0;0;;;;
2020/07/13 01:08:34;;;;;;;0;0;;;;;;;0;0;0;;;;
2020/07/13 01:09:35;;;;;;;0;0;;;;;;;0;0;0;;;;
2020/07/13 01:10:40;;;;;;;0;0;;;;;;;0;0;0;;;;
2020/07/13 01:11:41;;;;;;;0;0;;;;;;;0;0;0;;;;
2020/07/13 01:12:42;;;;;;;0;0;;;;;;;0;0;0;;;;
2020/07/13 01:13:43;;;;;;;0;0;;;;;;;0;0;0;;;;
2020/07/13 01:14:46;;;;;;;0;0;;;;;;;0;0;0;;;;
2020/07/13 01:15:46;;;;;;;0;0;;;;;;;0;0;0;;;;
2020/07/13 01:16:49;;;;;;;0;0;;;;;;;0;0;0;;;;
2020/07/13 01:17:58;;;;;;;0;0;;;;;;;0;0;0;;;;
2020/07/13 01:19:07;;;;;;;0;0;;;;;;;0;0;0;;;;
2020/07/13 01:20:41;;;;;;;0;0;;;;;;;0;0;0;;;;
2020/07/13 01:22:01;;;;;;;0;0;;;;;;;0;0;0;;;;
2020/07/13 01:23:23;;;;;;;0;0;;;;;;;0;0;0;;;;
2020/07/13 01:24:26;;;;;;;0;0;;;;;;;0;0;0;;;;
2020/07/13 01:25:54;;;;;;;0;0;;;;;;;0;0;0;;;;
2020/07/13 01:30:20;;;;;;;0;0;;;;;;;0;0;0;;;;
2020/07/13 01:31:20;;;;;;;0;0;;;;;;;0;0;0;;;;
2020/07/13 01:32:22;;;;;;;0;0;;;;;;;0;0;0;;;;
2020/07/13 01:33:25;;;;;;;0;0;;;;;;;0;0;0;;;;
2020/07/13 01:34:27;;;;;;;0;0;;;;;;;0;0;0;;;;
2020/07/13 01:35:28;;;;;;;0;0;;;;;;;0;0;0;;;;
2020/07/13 02:51:33;;;;;;;0;0;;;;;;;0;0;0;;;;
2020/07/13 02:52:33;;;;;;;0;0;;;;;;;0;0;0;;;;
2020/07/13 02:53:34;;;;;;;0;0;;;;;;;0;0;0;;;;
2020/07/13 02:54:34;;;;;;;0;0;;;;;;;0;0;0;;;;
2020/07/13 02:55:35;;;;;;;0;0;;;;;;;0;0;0;;;;
2020/07/13 02:56:35;;;;;;;0;0;;;;;;;0;0;0;;;;
2020/07/13 02:57:36;;;;;;;0;0;;;;;;;0;0;0;;;;
2020/07/13 02:58:36;;;;;;;0;0;;;;;;;0;0;0;;;;
2020/07/13 02:59:37;;;;;;;0;0;;;;;;;0;0;0;;;;
2020/07/13 03:00:37;;;;;;;0;0;;;;;;;0;0;0;;;;
2020/07/13 03:01:38;;;;;;;0;0;;;;;;;0;0;0;;;;
2020/07/13 03:02:39;;;;;;;0;0;;;;;;;0;0;0;;;;
2020/07/13 03:03:39;;;;;;;0;0;;;;;;;0;0;0;;;;
2020/07/13 03:04:40;;;;;;;0;0;;;;;;;0;0;0;;;;
2020/07/13 03:05:40;;;;;;;0;0;;;;;;;0;0;0;;;;
2020/07/13 03:06:41;;;;;;;0;0;;;;;;;0;0;0;;;;
2020/07/13 03:07:41;;;;;;;0;0;;;;;;;0;0;0;;;;
2020/07/13 03:08:42;;;;;;;0;0;;;;;;;0;0;0;;;;
2020/07/13 03:09:42;;;;;;;0;0;;;;;;;0;0;0;;;;
2020/07/13 03:10:43;;;;;;;0;0;;;;;;;0;0;0;;;;
2020/07/13 03:11:43;;;;;;;0;0;;;;;;;0;0;0;;;;
2020/07/13 03:12:44;;;;;;;0;0;;;;;;;0;0;0;;;;
2020/07/13 03:13:44;;;;;;;0;0;;;;;;;0;0;0;;;;
2020/07/13 03:14:45;;;;;;;0;0;;;;;;;0;0;0;;;;
2020/07/13 03:15:45;;;;;;;0;0;;;;;;;0;0;0;;;;
2020/07/13 03:16:46;;;;;;;0;0;;;;;;;0;0;0;;;;
2020/07/13 03:17:46;;;;;;;0;0;;;;;;;0;0;0;;;;
2020/07/13 03:18:47;;;;;;;0;0;;;;;;;0;0;0;;;;
2020/07/13 03:19:47;;;;;;;0;0;;;;;;;0;0;0;;;;
2020/07/13 03:20:48;;;;;;;0;0;;;;;;;0;0;0;;;;
2020/07/13 03:21:48;;;;;;;0;0;;;;;;;0;0;0;;;;
2020/07/13 03:22:49;;;;;;;0;0;;;;;;;0;0;0;;;;
2020/07/13 03:23:49;;;;;;;0;0;;;;;;;0;0;0;;;;
2020/07/13 03:24:50;;;;;;;0;0;;;;;;;0;0;0;;;;
2020/07/13 03:25:50;;;;;;;0;0;;;;;;;0;0;0;;;;
2020/07/13 03:26:51;;;;;;;0;0;;;;;;;0;0;0;;;;
2020/07/13 03:27:51;;;;;;;0;0;;;;;;;0;0;0;;;;
2020/07/13 03:28:52;;;;;;;0;0;;;;;;;0;0;0;;;;
2020/07/13 03:29:52;;;;;;;0;0;;;;;;;0;0;0;;;;
2020/07/13 03:30:52;;;;;;;0;0;;;;;;;0;0;0;;;;
2020/07/13 03:31:53;;;;;;;0;0;;;;;;;0;0;0;;;;
2020/07/13 03:32:53;;;;;;;0;0;;;;;;;0;0;0;;;;
2020/07/13 03:33:54;;;;;;;0;0;;;;;;;0;0;0;;;;
2020/07/13 03:34:54;;;;;;;0;0;;;;;;;0;0;0;;;;
2020/07/13 03:35:55;;;;;;;0;0;;;;;;;0;0;0;;;;
2020/07/13 03:36:55;;;;;;;0;0;;;;;;;0;0;0;;;;
2020/07/13 03:37:56;;;;;;;0;0;;;;;;;0;0;0;;;;
2020/07/13 03:38:56;;;;;;;0;0;;;;;;;0;0;0;;;;
2020/07/13 03:39:57;;;;;;;0;0;;;;;;;0;0;0;;;;
2020/07/13 03:40:57;;;;;;;0;0;;;;;;;0;0;0;;;;
2020/07/13 03:41:58;;;;;;;0;0;;;;;;;0;0;0;;;;
2020/07/13 03:42:59;;;;;;;0;0;;;;;;;0;0;0;;;;
2020/07/13 03:43:59;;;;;;;0;0;;;;;;;0;0;0;;;;
2020/07/13 03:45:01;;;;;;;0;0;;;;;;;0;0;0;;;;
2020/07/13 03:46:04;;;;;;;0;0;;;;;;;0;0;0;;;;
2020/07/13 03:47:05;;;;;;;0;0;;;;;;;0;0;0;;;;
2020/07/13 03:48:05;;;;;;;0;0;;;;;;;0;0;0;;;;
2020/07/13 03:49:06;;;;;;;0;0;;;;;;;0;0;0;;;;
2020/07/13 03:50:06;;;;;;;0;0;;;;;;;0;0;0;;;;
2020/07/13 03:51:07;;;;;;;0;0;;;;;;;0;0;0;;;;
2020/07/13 03:52:08;;;;;;;0;0;;;;;;;0;0;0;;;;
2020/07/13 03:53:08;;;;;;;0;0;;;;;;;0;0;0;;;;
2020/07/13 03:54:09;;;;;;;0;0;;;;;;;0;0;0;;;;
2020/07/13 03:55:09;;;;;;;0;0;;;;;;;0;0;0;;;;
2020/07/13 03:56:10;;;;;;;0;0;;;;;;;0;0;0;;;;
2020/07/13 03:57:10;;;;;;;0;0;;;;;;;0;0;0;;;;
2020/07/13 03:58:11;;;;;;;0;0;;;;;;;0;0;0;;;;
2020/07/13 03:59:11;;;;;;;0;0;;;;;;;0;0;0;;;;
2020/07/13 04:00:11;;;;;;;0;0;;;;;;;0;0;0;;;;
2020/07/13 04:01:12;;;;;;;0;0;;;;;;;0;0;0;;;;
2020/07/13 04:02:13;;;;;;;0;0;;;;;;;0;0;0;;;;
2020/07/13 04:03:13;;;;;;;0;0;;;;;;;0;0;0;;;;
2020/07/13 04:04:13;;;;;;;0;0;;;;;;;0;0;0;;;;
2020/07/13 04:05:14;;;;;;;0;0;;;;;;;0;0;0;;;;
2020/07/13 04:21:16;;;;;;;0;0;;;;;;;0;0;0;;;;
2020/07/13 04:22:56;;;;;;;0;0;;;;;;;0;0;0;;;;
2020/07/13 04:28:07;;;;;;;0;0;;;;;;;0;0;0;;;;
2020/07/13 04:29:08;;;;;;;0;0;;;;;;;0;0;0;;;;
2020/07/13 04:30:08;;;;;;;0;0;;;;;;;0;0;0;;;;
2020/07/13 04:31:14;;;;;;;0;0;;;;;;;0;0;0;;;;
2020/07/13 04:32:15;;;;;;;0;0;;;;;;;0;0;0;;;;
2020/07/13 04:33:16;;;;;;;0;0;;;;;;;0;0;0;;;;
2020/07/13 04:37:10;;;;;;;0;0;;;;;;;0;0;0;;;;
2020/07/13 04:38:46;;;;;;;0;0;;;;;;;0;0;0;;;;
2020/07/13 04:44:04;;;;;;;0;0;;;;;;;0;0;0;;;;
2020/07/13 04:45:06;;;;;;;0;0;;;;;;;0;0;0;;;;
2020/07/13 04:46:09;;;;;;;0;0;;;;;;;0;0;0;;;;
2020/07/13 04:47:09;;;;;;;0;0;;;;;;;0;0;0;;;;
2020/07/13 04:48:10;;;;;;;0;0;;;;;;;0;0;0;;;;
2020/07/13 04:49:11;;;;;;;0;0;;;;;;;0;0;0;;;;
2020/07/13 04:50:11;;;;;;;0;0;;;;;;;0;0;0;;;;
2020/07/13 04:51:12;;;;;;;0;0;;;;;;;0;0;0;;;;
2020/07/13 04:52:13;;;;;;;0;0;;;;;;;0;0;0;;;;
2020/07/13 04:53:13;;;;;;;0;0;;;;;;;0;0;0;;;;
2020/07/13 04:54:14;;;;;;;0;0;;;;;;;0;0;0;;;;
2020/07/13 04:55:14;;;;;;;0;0;;;;;;;0;0;0;;;;
2020/07/13 04:56:15;;;;;;;0;0;;;;;;;0;0;0;;;;
2020/07/13 04:57:15;;;;;;;0;0;;;;;;;0;0;0;;;;
2020/07/13 04:58:16;;;;;;;0;0;;;;;;;0;0;0;;;;
2020/07/13 04:59:18;;;;;;;0;0;;;;;;;0;0;0;;;;
2020/07/13 05:00:18;;;;;;;0;0;;;;;;;0;0;0;;;;
2020/07/13 05:05:31;;;;;;;0;0;;;;;;;0;0;0;;;;
2020/07/13 05:21:37;;;;;;;0;0;;;;;;;0;0;0;;;;
2020/07/13 05:22:51;;;;;;;0;0;;;;;;;0;0;0;;;;
2020/07/13 05:24:14;;;;;;;0;0;;;;;;;0;0;0;;;;
2020/07/13 05:25:15;;;;;;;0;0;;;;;;;0;0;0;;;;
2020/07/13 05:30:21;;;;;;;0;0;;;;;;;0;0;0;;;;
2020/07/13 05:31:21;;;;;;;0;0;;;;;;;0;0;0;;;;
2020/07/13 05:32:25;;;;;;;0;0;;;;;;;0;0;0;;;;
2020/07/13 05:33:26;;;;;;;0;0;;;;;;;0;0;0;;;;
2020/07/13 05:34:27;;;;;;;0;0;;;;;;;0;0;0;;;;
2020/07/13 05:35:28;;;;;;;0;0;;;;;;;0;0;0;;;;
2020/07/13 05:36:28;;;;;;;0;0;;;;;;;0;0;0;;;;
2020/07/13 05:37:29;;;;;;;0;0;;;;;;;0;0;0;;;;
2020/07/13 05:38:31;;;;;;;0;0;;;;;;;0;0;0;;;;
2020/07/13 05:39:50;;;;;;;0;0;;;;;;;0;0;0;;;;
2020/07/13 05:40:54;;;;;;;0;0;;;;;;;0;0;0;;;;
2020/07/13 05:41:56;;;;;;;0;0;;;;;;;0;0;0;;;;
2020/07/13 05:43:05;;;;;;;0;0;;;;;;;0;0;0;;;;
2020/07/13 05:44:07;;;;;;;0;0;;;;;;;0;0;0;;;;
2020/07/13 05:45:13;;;;;;;0;0;;;;;;;0;0;0;;;;
2020/07/13 05:46:20;;;;;;;0;0;;;;;;;0;0;0;;;;
2020/07/13 05:47:51;;;;;;;0;0;;;;;;;0;0;0;;;;
2020/07/13 05:48:58;;;;;;;0;0;;;;;;;0;0;0;;;;
2020/07/13 05:50:11;;;;;;;0;0;;;;;;;0;0;0;;;;
2020/07/13 05:53:35;;;;;;;0;0;;;;;;;0;0;0;;;;
2020/07/13 05:55:08;;;;;;;0;0;;;;;;;0;0;0;;;;
2020/07/13 05:56:10;;;;;;;0;0;;;;;;;0;0;0;;;;
2020/07/13 05:57:21;;;;;;;0;0;;;;;;;0;0;0;;;;
2020/07/13 05:58:27;;;;;;;0;0;;;;;;;0;0;0;;;;
2020/07/13 05:59:36;;;;;;;0;0;;;;;;;0;0;0;;;;
2020/07/13 06:01:15;;;;;;;0;0;;;;;;;0;0;0;;;;
2020/07/13 06:02:26;;;;;;;0;0;;;;;;;0;0;0;;;;
2020/07/13 06:03:37;;;;;;;0;0;;;;;;;0;0;0;;;;
2020/07/13 06:04:45;;;;;;;0;0;;;;;;;0;0;0;;;;
2020/07/13 06:05:54;;;;;;;0;0;;;;;;;0;0;0;;;;
2020/07/13 06:51:56;;;;;;;0;0;;;;;;;0;0;0;;;;
2020/07/13 06:53:17;;;;;;;0;0;;;;;;;0;0;0;;;;
2020/07/13 06:54:29;;;;;;;0;0;;;;;;;0;0;0;;;;
2020/07/13 06:55:32;;;;;;;0;0;;;;;;;0;0;0;;;;
2020/07/13 06:56:34;;;;;;;0;0;;;;;;;0;0;0;;;;
2020/07/13 06:57:42;;;;;;;0;0;;;;;;;0;0;0;;;;
2020/07/13 06:58:48;;;;;;;0;0;;;;;;;0;0;0;;;;
2020/07/13 07:00:23;;;;;;;0;0;;;;;;;0;0;0;;;;
2020/07/13 07:02:10;;;;;;;0;0;;;;;;;0;0;0;;;;
2020/07/13 07:05:30;;;;;;;0;0;;;;;;;0;0;0;;;;
2020/07/13 07:08:56;;;;;;;0;0;;;;;;;0;0;0;;;;
2020/07/13 07:10:14;;;;;;;0;0;;;;;;;0;0;0;;;;
2020/07/13 07:11:24;;;;;;;0;0;;;;;;;0;0;0;;;;
2020/07/13 07:12:25;;;;;;;0;0;;;;;;;0;0;0;;;;
2020/07/13 07:13:29;;;;;;;0;0;;;;;;;0;0;0;;;;
2020/07/13 07:14:30;;;;;;;0;0;;;;;;;0;0;0;;;;
2020/07/13 07:15:35;;;;;;;0;0;;;;;;;0;0;0;;;;
2020/07/13 07:16:52;;;;;;;0;0;;;;;;;0;0;0;;;;
2020/07/13 07:17:52;;;;;;;0;0;;;;;;;0;0;0;;;;
2020/07/13 07:18:58;;;;;;;0;0;;;;;;;0;0;0;;;;
2020/07/13 07:19:59;;;;;;;0;0;;;;;;;0;0;0;;;;
2020/07/13 07:21:01;;;;;;;0;0;;;;;;;0;0;0;;;;
2020/07/13 07:22:02;;;;;;;0;0;;;;;;;0;0;0;;;;
2020/07/13 07:23:03;;;;;;;0;0;;;;;;;0;0;0;;;;
2020/07/13 07:24:04;;;;;;;0;0;;;;;;;0;0;0;;;;
2020/07/13 07:25:04;;;;;;;0;0;;;;;;;0;0;0;;;;
2020/07/13 07:26:24;;;;;;;0;0;;;;;;;0;0;0;;;;
2020/07/13 07:27:36;;;;;;;0;0;;;;;;;0;0;0;;;;
2020/07/13 07:28:43;;;;;;;0;0;;;;;;;0;0;0;;;;
2020/07/13 07:29:56;;;;;;;0;0;;;;;;;0;0;0;;;;
2020/07/13 07:31:03;;;;;;;0;0;;;;;;;0;0;0;;;;
2020/07/13 07:32:15;;;;;;;0;0;;;;;;;0;0;0;;;;
2020/07/13 07:33:17;;;;;;;0;0;;;;;;;0;0;0;;;;
2020/07/13 07:34:37;;;;;;;2.299999;2.1;;;;;;;22.74;87.71387;95822.07;;;;
2020/07/13 07:36:48;;;;;;;2.299999;2.1;;;;;;;22.74;87.71387;95822.07;;;;
2020/07/13 07:37:49;;;;;;;2.299999;2.1;;;;;;;22.74;87.71387;95822.07;;;;
2020/07/13 07:38:50;;;;;;;2.299999;2.1;;;;;;;22.74;87.71387;95822.07;;;;
2020/07/13 07:40:01;;;;;;;2.299999;2.1;;;;;;;22.74;87.71387;95822.07;;;;
2020/07/13 07:45:22;;;;;;;2.4;2.2;;;;;;;23.43;81.33203;95820.39;;;;
2020/07/13 07:46:42;;;;;;;2.4;2.2;;;;;;;23.43;81.33203;95820.39;;;;
2020/07/13 07:47:58;;;;;;;2.4;2.2;;;;;;;23.43;81.33203;95820.39;;;;
2020/07/13 07:48:59;;;;;;;2.4;2.2;;;;;;;23.43;81.33203;95820.39;;;;
2020/07/13 07:50:08;;;;;;;2.4;2.2;;;;;;;23.43;81.33203;95820.39;;;;
2020/07/13 07:51:59;;;;;;;2.4;2.2;;;;;;;23.43;81.33203;95820.39;;;;
2020/07/13 07:53:04;;;;;;;2.4;2.2;;;;;;;23.43;81.33203;95820.39;;;;
2020/07/13 07:54:04;;;;;;;2.4;2.2;;;;;;;23.43;81.33203;95820.39;;;;
2020/07/13 07:55:05;;;;;;;2.4;2.2;;;;;;;23.43;81.33203;95820.39;;;;
2020/07/13 07:56:06;;;;;;;2.4;2.2;;;;;;;23.43;81.33203;95820.39;;;;
2020/07/13 08:01:22;;;;;;;2.4;2.2;;;;;;;23.43;81.33203;95820.39;;;;
2020/07/13 08:02:41;;;;;;;2.4;2.2;;;;;;;23.43;81.33203;95820.39;;;;
2020/07/13 08:03:41;;;;;;;2.4;2.2;;;;;;;23.43;81.33203;95820.39;;;;
2020/07/13 08:04:43;;;;;;;2.4;2.2;;;;;;;23.43;81.33203;95820.39;;;;
2020/07/13 08:05:44;;;;;;;2.25;2.05;;;;;;;23.99;74.9873;95806.19;;;;
2020/07/13 08:06:47;;;;;;;2.25;2.05;;;;;;;23.99;74.9873;95806.19;;;;
2020/07/13 08:07:48;;;;;;;2.25;2.05;;;;;;;23.99;74.9873;95806.19;;;;
2020/07/13 08:08:49;;;;;;;2.25;2.05;;;;;;;23.99;74.9873;95806.19;;;;
2020/07/13 08:09:50;;;;;;;2.25;2.05;;;;;;;23.99;74.9873;95806.19;;;;
2020/07/13 08:10:51;;;;;;;2.25;2.05;;;;;;;23.99;74.9873;95806.19;;;;
2020/07/13 08:11:56;;;;;;;2.25;2.05;;;;;;;23.99;74.9873;95806.19;;;;
2020/07/13 08:12:57;;;;;;;2.25;2.05;;;;;;;23.99;74.9873;95806.19;;;;
2020/07/13 08:13:59;;;;;;;2.25;2.05;;;;;;;23.99;74.9873;95806.19;;;;
2020/07/13 08:15:07;;;;;;;2.25;2.05;;;;;;;23.99;74.9873;95806.19;;;;
2020/07/13 08:16:08;;;;;;;2.25;2.05;;;;;;;23.99;74.9873;95806.19;;;;
2020/07/13 08:17:15;;;;;;;2.25;2.05;;;;;;;23.99;74.9873;95806.19;;;;
2020/07/13 08:18:19;;;;;;;2.25;2.05;;;;;;;23.99;74.9873;95806.19;;;;
2020/07/13 08:19:20;;;;;;;2.25;2.05;;;;;;;23.99;74.9873;95806.19;;;;
2020/07/13 08:20:21;;;;;;;2.25;2.05;;;;;;;23.99;74.9873;95806.19;;;;
2020/07/13 08:21:23;;;;;;;2.25;2.05;;;;;;;23.99;74.9873;95806.19;;;;
2020/07/13 08:22:25;;;;;;;2.25;2.05;;;;;;;23.99;74.9873;95806.19;;;;
2020/07/13 08:23:30;;;;;;;2.25;2.05;;;;;;;23.99;74.9873;95806.19;;;;
2020/07/13 08:24:33;;;;;;;2.25;2.05;;;;;;;23.99;74.9873;95806.19;;;;
2020/07/13 08:25:39;;;;;;;2.25;2.05;;;;;;;23.99;74.9873;95806.19;;;;
2020/07/13 08:26:50;;;;;;;2.25;2.05;;;;;;;23.99;74.9873;95806.19;;;;
2020/07/13 08:28:00;;;;;;;2.1;1.7;;;;;;;24.16;68.88672;95797.16;;;;
2020/07/13 08:29:07;;;;;;;2.1;1.7;;;;;;;24.16;68.88672;95797.16;;;;
2020/07/13 08:30:14;;;;;;;2.1;1.7;;;;;;;24.16;68.88672;95797.16;;;;
2020/07/13 08:31:21;;;;;;;2.1;1.7;;;;;;;24.16;68.88672;95797.16;;;;
2020/07/13 08:32:43;;;;;;;2.1;1.7;;;;;;;24.16;68.88672;95797.16;;;;
2020/07/13 08:34:18;;;;;;;2.1;1.7;;;;;;;24.16;68.88672;95797.16;;;;
2020/07/13 08:35:22;;;;;;;2.1;1.7;;;;;;;24.16;68.88672;95797.16;;;;
2020/07/13 08:36:29;;;;;;;2.1;1.7;;;;;;;24.16;68.88672;95797.16;;;;
2020/07/13 08:37:58;;;;;;;3.45;1.6;;;;;;;24.52;68.32129;95796.8;;;;
2020/07/13 08:39:04;;;;;;;3.45;1.6;;;;;;;24.52;68.32129;95796.8;;;;
2020/07/13 08:40:10;;;;;;;3.45;1.6;;;;;;;24.52;68.32129;95796.8;;;;
2020/07/13 08:41:13;;;;;;;3.45;1.6;;;;;;;24.52;68.32129;95796.8;;;;
2020/07/13 08:42:19;;;;;;;3.45;1.6;;;;;;;24.52;68.32129;95796.8;;;;
2020/07/13 08:43:28;;;;;;;3.45;1.6;;;;;;;24.52;68.32129;95796.8;;;;
2020/07/13 08:44:32;;;;;;;3.45;1.6;;;;;;;24.52;68.32129;95796.8;;;;
2020/07/13 08:45:34;;;;;;;3.45;1.6;;;;;;;24.52;68.32129;95796.8;;;;
2020/07/13 08:46:39;;;;;;;3.45;1.6;;;;;;;24.52;68.32129;95796.8;;;;
2020/07/13 08:47:48;;;;;;;3.45;1.6;;;;;;;24.52;68.32129;95796.8;;;;
2020/07/13 08:48:56;;;;;;;3.45;1.6;;;;;;;24.52;68.32129;95796.8;;;;
2020/07/13 08:50:04;;;;;;;3.45;1.6;;;;;;;24.52;68.32129;95796.8;;;;
2020/07/13 08:51:06;;;;;;;3.45;1.6;;;;;;;24.52;68.32129;95796.8;;;;
2020/07/13 08:52:09;;;;;;;3.45;1.6;;;;;;;24.52;68.32129;95796.8;;;;
2020/07/13 08:53:10;;;;;;;3.45;1.6;;;;;;;24.52;68.32129;95796.8;;;;
2020/07/13 08:54:11;;;;;;;3.45;1.6;;;;;;;24.52;68.32129;95796.8;;;;
2020/07/13 08:55:11;;;;;;;3.45;1.6;;;;;;;24.52;68.32129;95796.8;;;;
2020/07/13 08:56:12;;;;;;;3.45;1.6;;;;;;;24.52;68.32129;95796.8;;;;
2020/07/13 08:57:14;;;;;;;3.45;1.6;;;;;;;24.52;68.32129;95796.8;;;;
2020/07/13 08:58:14;;;;;;;3.45;1.6;;;;;;;24.52;68.32129;95796.8;;;;
2020/07/13 08:59:16;;;;;;;3.45;1.6;;;;;;;24.52;68.32129;95796.8;;;;
2020/07/13 09:00:19;;;;;;;2.2;1.8;;;;;;;27.75;63.21387;95794.84;;;;
2020/07/13 09:01:21;;;;;;;2.2;1.8;;;;;;;27.75;63.21387;95794.84;;;;
2020/07/13 09:02:24;;;;;;;2.2;1.8;;;;;;;27.75;63.21387;95794.84;;;;
2020/07/13 09:03:28;;;;;;;2.2;1.8;;;;;;;27.75;63.21387;95794.84;;;;
2020/07/13 09:04:47;;;;;;;2.2;1.8;;;;;;;27.75;63.21387;95794.84;;;;
2020/07/13 09:05:49;;;;;;;2.2;1.8;;;;;;;27.75;63.21387;95794.84;;;;
2020/07/13 09:06:53;;;;;;;2.2;1.8;;;;;;;27.75;63.21387;95794.84;;;;
2020/07/13 09:08:09;;;;;;;2.2;1.8;;;;;;;27.75;63.21387;95794.84;;;;
2020/07/13 09:09:10;;;;;;;2.2;1.8;;;;;;;27.75;63.21387;95794.84;;;;
2020/07/13 09:10:14;;;;;;;3.25;1.6;;;;;;;30.47;56.04883;95780.35;;;;
2020/07/13 09:11:16;;;;;;;3.25;1.6;;;;;;;30.47;56.04883;95780.35;;;;
2020/07/13 09:12:17;;;;;;;3.25;1.6;;;;;;;30.47;56.04883;95780.35;;;;
2020/07/13 09:13:22;;;;;;;3.25;1.6;;;;;;;30.47;56.04883;95780.35;;;;
2020/07/13 09:14:22;;;;;;;3.25;1.6;;;;;;;30.47;56.04883;95780.35;;;;
2020/07/13 09:15:25;;;;;;;3.25;1.6;;;;;;;30.47;56.04883;95780.35;;;;
2020/07/13 09:16:33;;;;;;;3.25;1.6;;;;;;;30.47;56.04883;95780.35;;;;
2020/07/13 09:17:34;;;;;;;3.25;1.6;;;;;;;30.47;56.04883;95780.35;;;;
2020/07/13 09:18:35;;;;;;;3.25;1.6;;;;;;;30.47;56.04883;95780.35;;;;
2020/07/13 09:19:38;;;;;;;3.25;1.6;;;;;;;30.47;56.04883;95780.35;;;;
2020/07/13 09:20:47;;;;;;;2.15;1.7;;;;;;;32.5;51.60449;95777.15;;;;
2020/07/13 09:21:48;;;;;;;2.15;1.7;;;;;;;32.5;51.60449;95777.15;;;;
2020/07/13 09:22:49;;;;;;;2.15;1.7;;;;;;;32.5;51.60449;95777.15;;;;
2020/07/13 09:23:50;;;;;;;2.15;1.7;;;;;;;32.5;51.60449;95777.15;;;;
2020/07/13 09:24:51;;;;;;;2.15;1.7;;;;;;;32.5;51.60449;95777.15;;;;
2020/07/13 09:25:54;;;;;;;2.15;1.7;;;;;;;32.5;51.60449;95777.15;;;;
2020/07/13 09:26:57;;;;;;;2.15;1.7;;;;;;;32.5;51.60449;95777.15;;;;
2020/07/13 09:27:58;;;;;;;2.15;1.7;;;;;;;32.5;51.60449;95777.15;;;;
2020/07/13 09:28:59;;;;;;;2.15;1.7;;;;;;;32.5;51.60449;95777.15;;;;
2020/07/13 09:30:00;;;;;;;2.15;1.7;;;;;;;32.5;51.60449;95777.15;;;;
2020/07/13 09:31:01;;;;;;;2.15;1.7;;;;;;;32.5;51.60449;95777.15;;;;
2020/07/13 09:32:05;;;;;;;1.8;1.7;;;;;;;32.97;47.12207;95777.87;;;;
2020/07/13 09:33:06;;;;;;;1.8;1.7;;;;;;;32.97;47.12207;95777.87;;;;
2020/07/13 09:34:09;;;;;;;1.8;1.7;;;;;;;32.97;47.12207;95777.87;;;;
2020/07/13 09:35:09;;;;;;;1.8;1.7;;;;;;;32.97;47.12207;95777.87;;;;
2020/07/13 09:36:11;;;;;;;1.8;1.7;;;;;;;32.97;47.12207;95777.87;;;;
2020/07/13 09:37:13;;;;;;;1.8;1.7;;;;;;;32.97;47.12207;95777.87;;;;
2020/07/13 09:38:14;;;;;;;1.8;1.7;;;;;;;32.97;47.12207;95777.87;;;;
2020/07/13 09:39:21;;;;;;;1.8;1.7;;;;;;;32.97;47.12207;95777.87;;;;
2020/07/13 09:40:26;;;;;;;1.8;1.7;;;;;;;32.97;47.12207;95777.87;;;;
2020/07/13 09:41:59;;;;;;;3.1;1.7;;;;;;;34.25;43.26953;95784.23;;;;
2020/07/13 09:43:17;;;;;;;3.1;1.7;;;;;;;34.25;43.26953;95784.23;;;;
2020/07/13 09:44:26;;;;;;;3.1;1.7;;;;;;;34.25;43.26953;95784.23;;;;
2020/07/13 09:46:22;;;;;;;3.1;1.7;;;;;;;34.25;43.26953;95784.23;;;;
2020/07/13 09:47:26;;;;;;;3.1;1.7;;;;;;;34.25;43.26953;95784.23;;;;
2020/07/13 09:49:11;;;;;;;3.1;1.7;;;;;;;34.25;43.26953;95784.23;;;;
2020/07/13 09:54:22;;;;;;;1.95;1.75;;;;;;;34.41;43.56934;95765.88;;;;
2020/07/13 09:55:38;;;;;;;1.95;1.75;;;;;;;34.41;43.56934;95765.88;;;;
2020/07/13 09:56:45;;;;;;;1.95;1.75;;;;;;;34.41;43.56934;95765.88;;;;
2020/07/13 09:58:00;;;;;;;1.95;1.75;;;;;;;34.41;43.56934;95765.88;;;;
2020/07/13 09:59:06;;;;;;;1.95;1.75;;;;;;;34.41;43.56934;95765.88;;;;
2020/07/13 10:00:06;;;;;;;1.95;1.75;;;;;;;34.41;43.56934;95765.88;;;;
2020/07/13 10:01:10;;;;;;;1.95;1.75;;;;;;;34.41;43.56934;95765.88;;;;
2020/07/13 10:02:12;;;;;;;1.95;1.75;;;;;;;34.41;43.56934;95765.88;;;;
2020/07/13 10:03:13;;;;;;;1.7;1.6;;;;;;;34.92;43.00098;95764.87;;;;
2020/07/13 10:04:16;;;;;;;1.7;1.6;;;;;;;34.92;43.00098;95764.87;;;;
2020/07/13 10:05:17;;;;;;;1.7;1.6;;;;;;;34.92;43.00098;95764.87;;;;
2020/07/13 10:06:25;;;;;;;1.7;1.6;;;;;;;34.92;43.00098;95764.87;;;;
2020/07/13 10:07:26;;;;;;;1.7;1.6;;;;;;;34.92;43.00098;95764.87;;;;
2020/07/13 10:08:27;;;;;;;1.7;1.6;;;;;;;34.92;43.00098;95764.87;;;;
2020/07/13 10:09:32;;;;;;;1.7;1.6;;;;;;;34.92;43.00098;95764.87;;;;
2020/07/13 10:10:34;;;;;;;1.7;1.6;;;;;;;34.92;43.00098;95764.87;;;;
2020/07/13 10:12:05;;;;;;;1.7;1.6;;;;;;;34.92;43.00098;95764.87;;;;
2020/07/13 10:13:06;;;;;;;1.7;1.6;;;;;;;34.92;43.00098;95764.87;;;;
2020/07/13 10:14:07;;;;;;;2;1.6;;;;;;;34.22;43.83594;95758.93;;;;
2020/07/13 10:15:07;;;;;;;2;1.6;;;;;;;34.22;43.83594;95758.93;;;;
2020/07/13 10:16:11;;;;;;;2;1.6;;;;;;;34.22;43.83594;95758.93;;;;
2020/07/13 10:17:14;;;;;;;2;1.6;;;;;;;34.22;43.83594;95758.93;;;;
2020/07/13 10:18:15;;;;;;;2;1.6;;;;;;;34.22;43.83594;95758.93;;;;
2020/07/13 10:19:19;;;;;;;2;1.6;;;;;;;34.22;43.83594;95758.93;;;;
2020/07/13 10:20:21;;;;;;;2;1.6;;;;;;;34.22;43.83594;95758.93;;;;
2020/07/13 10:21:22;;;;;;;2;1.6;;;;;;;34.22;43.83594;95758.93;;;;
2020/07/13 10:22:25;;;;;;;2;1.6;;;;;;;34.22;43.83594;95758.93;;;;
2020/07/13 10:23:25;;;;;;;2;1.6;;;;;;;34.22;43.83594;95758.93;;;;
2020/07/13 10:24:26;;;;;;;1.7;1.6;;;;;;;33.65;42.66699;95757.67;;;;
2020/07/13 10:25:26;;;;;;;1.7;1.6;;;;;;;33.65;42.66699;95757.67;;;;
2020/07/13 10:26:27;;;;;;;1.7;1.6;;;;;;;33.65;42.66699;95757.67;;;;
2020/07/13 10:27:27;;;;;;;1.7;1.6;;;;;;;33.65;42.66699;95757.67;;;;
2020/07/13 10:28:28;;;;;;;1.7;1.6;;;;;;;33.65;42.66699;95757.67;;;;
2020/07/13 10:29:29;;;;;;;1.7;1.6;;;;;;;33.65;42.66699;95757.67;;;;
2020/07/13 10:30:29;;;;;;;1.7;1.6;;;;;;;33.65;42.66699;95757.67;;;;
2020/07/13 10:31:37;;;;;;;1.7;1.6;;;;;;;33.65;42.66699;95757.67;;;;
2020/07/13 10:32:38;;;;;;;1.7;1.6;;;;;;;33.65;42.66699;95757.67;;;;
2020/07/13 10:33:39;;;;;;;1.7;1.6;;;;;;;33.65;42.66699;95757.67;;;;
2020/07/13 10:34:41;;;;;;;1.7;1.6;;;;;;;33.65;42.66699;95757.67;;;;
2020/07/13 10:35:42;;;;;;;1.9;1.6;;;;;;;33.55;41.72461;95763.28;;;;
2020/07/13 10:36:42;;;;;;;1.9;1.6;;;;;;;33.55;41.72461;95763.28;;;;
2020/07/13 10:37:43;;;;;;;1.9;1.6;;;;;;;33.55;41.72461;95763.28;;;;
2020/07/13 10:38:44;;;;;;;1.9;1.6;;;;;;;33.55;41.72461;95763.28;;;;
2020/07/13 10:39:45;;;;;;;1.9;1.6;;;;;;;33.55;41.72461;95763.28;;;;
2020/07/13 10:40:45;;;;;;;1.9;1.6;;;;;;;33.55;41.72461;95763.28;;;;
2020/07/13 10:41:46;;;;;;;1.9;1.6;;;;;;;33.55;41.72461;95763.28;;;;
2020/07/13 10:42:47;;;;;;;1.9;1.6;;;;;;;33.55;41.72461;95763.28;;;;
2020/07/13 10:43:49;;;;;;;1.9;1.6;;;;;;;33.55;41.72461;95763.28;;;;
2020/07/13 10:44:50;;;;;;;1.9;1.6;;;;;;;33.55;41.72461;95763.28;;;;
2020/07/13 10:45:50;;;;;;;2.5;1.7;;;;;;;33.09;41.66016;95746.53;;;;
2020/07/13 10:46:51;;;;;;;2.5;1.7;;;;;;;33.09;41.66016;95746.53;;;;
2020/07/13 10:47:52;;;;;;;2.5;1.7;;;;;;;33.09;41.66016;95746.53;;;;
2020/07/13 10:48:53;;;;;;;2.5;1.7;;;;;;;33.09;41.66016;95746.53;;;;
2020/07/13 10:49:54;;;;;;;2.5;1.7;;;;;;;33.09;41.66016;95746.53;;;;
2020/07/13 10:50:55;;;;;;;2.5;1.7;;;;;;;33.09;41.66016;95746.53;;;;
2020/07/13 10:51:56;;;;;;;2.5;1.7;;;;;;;33.09;41.66016;95746.53;;;;
2020/07/13 10:52:57;;;;;;;2.5;1.7;;;;;;;33.09;41.66016;95746.53;;;;
2020/07/13 10:53:58;;;;;;;2.5;1.7;;;;;;;33.09;41.66016;95746.53;;;;
2020/07/13 10:54:58;;;;;;;2.5;1.7;;;;;;;33.09;41.66016;95746.53;;;;
2020/07/13 10:55:59;;;;;;;2.5;1.7;;;;;;;33.09;41.66016;95746.53;;;;
2020/07/13 10:57:14;;;;;;;2.5;1.7;;;;;;;33.09;41.66016;95746.53;;;;